• Join FlightAware (Why Join?)
  • Login
  • US Flag 
06:41PM EST


 

Airport Tracker/Info


-or-


 

Live Flight TrackerFlight Track Log ✈ AAL1144 ✈ 28-Apr-2013 ✈ KSNA - KORD

Flight Track Log - Related Links

Times and Time Zones

All times are in EDT time to prevent confusion due to time zone crossing. See the AAL1144 flight status page for this flight to view local times or setup timezone preferences in your user account.

Time Position Orientation Groundspeed Altitude Reporting Facility
EDT Latitude Longitude Course Direction KTS MPH feet Rate Location/Type
08:02PM 33.6333 -117.8833 90° East 170 196 1,600  Level Southern California TRACON
08:03PM 33.5833 -117.9000 196° South 226 260 3,400 1,740 Climbing Southern California TRACON
08:04PM 33.4966 -117.6335 54° Northeast  Level FlightAware Approximate
08:04PM 33.5319 -117.8739 157° South 245 282 5,100  Level Los Angeles Center
08:05PM 33.5545 -117.4992 66° East  Level FlightAware Approximate
08:05PM 33.5289 -117.7867 92° East 280 322 7,400  Level Los Angeles Center
08:06PM 33.5833 -117.3542 90° East  Level FlightAware Approximate
08:06PM 33.5481 -117.6781 78° East 280 322 10,500  Level Los Angeles Center
08:07PM 33.5833 -117.2022 90° East  Level FlightAware Approximate
08:07PM 33.5669 -117.5736 78° East 317 365 11,200  Level Los Angeles Center
08:08PM 33.5850 -117.4553 80° East 358 412 13,600 2,160 Climbing Los Angeles Center
08:09PM 33.5889 -117.3300 88° East 375 432 15,800 2,220 Climbing Los Angeles Center
08:10PM 33.5925 -117.1981 88° East 394 453 18,300 2,400 Climbing Los Angeles Center
08:11PM 33.5994 -117.0350 87° East 408 470 20,800 2,100 Climbing Los Angeles Center
08:12PM 33.6050 -116.8933 87° East 425 489 22,700 1,620 Climbing Los Angeles Center
08:13PM 33.6089 -116.7586 88° East 435 501 24,200 1,500 Climbing Los Angeles Center
08:14PM 33.6144 -116.6083 87° East 447 514 25,900 1,560 Climbing Los Angeles Center
08:15PM 33.6194 -116.4275 88° East 452 520 27,500 1,440 Climbing Los Angeles Center
08:16PM 33.6242 -116.2697 88° East 468 539 28,900 1,380 Climbing Los Angeles Center
08:17PM 33.6425 -116.1164 82° East 467 537 30,400 1,440 Climbing Los Angeles Center
08:18PM 33.6889 -115.9722 69° East 462 532 31,900 1,560 Climbing Los Angeles Center
08:19PM 33.7350 -115.8336 68° East 449 517 33,700 1,380 Climbing Los Angeles Center
08:20PM 33.7786 -115.6978 69° East 437 503 34,800 960 Climbing Los Angeles Center
08:21PM 33.8219 -115.5597 69° East 441 507 35,700 840 Climbing Los Angeles Center
08:22PM 33.8758 -115.3919 69° East 447 514 36,600 540 Climbing Los Angeles Center
08:23PM 33.9194 -115.2531 69° East 445 512 36,900 120 Climbing Los Angeles Center
08:24PM 33.9653 -115.1119 69° East 452 520 36,900  Level Los Angeles Center
08:25PM 34.0097 -114.9719 69° East 449 517 36,900  Level Los Angeles Center
08:26PM 34.0556 -114.8308 69° East 453 521 36,900  Level Los Angeles Center
08:27PM 34.0997 -114.6900 69° East 451 519 36,900  Level Los Angeles Center
08:29PM 34.1839 -114.5408 56° Northeast 454 522 36,900  Level Los Angeles Center
08:30PM 34.2550 -114.4197 55° Northeast 445 512 36,900 60 Level Los Angeles Center
08:30PM 34.2839 -114.3681 56° Northeast 453 521 37,000  Climbing Albuquerque Center
08:32PM 34.3983 -114.1758 54° Northeast 443 510 36,900 -60 Descending Los Angeles Center
08:33PM 34.4700 -114.0528 55° Northeast 445 512 36,900  Level Los Angeles Center
08:34PM 34.5572 -113.9289 49° Northeast 471 542 37,000  Climbing Los Angeles Center
08:35PM 34.6436 -113.8197 46° Northeast 453 521 37,000  Level Los Angeles Center
08:36PM 34.7300 -113.7139 45° Northeast 447 514 37,000  Level Los Angeles Center
08:37PM 34.8339 -113.5842 46° Northeast 448 516 37,000  Level Los Angeles Center
08:38PM 34.9206 -113.4753 46° Northeast 449 517 37,000  Level Albuquerque Center
08:39PM 35.0075 -113.3667 46° Northeast 450 518 37,000  Level Albuquerque Center
08:40PM 35.0933 -113.2572 46° Northeast 448 516 37,000  Level Albuquerque Center
08:41PM 35.1917 -113.1336 46° Northeast 446 513 37,000  Level Los Angeles Center
08:42PM 35.2767 -113.0258 46° Northeast 442 509 37,000  Level Los Angeles Center
08:43PM 35.3578 -112.9222 46° Northeast 441 507 37,000  Level Los Angeles Center
08:44PM 35.4597 -112.7914 46° Northeast 443 510 37,000  Level Los Angeles Center
08:45PM 35.5253 -112.6614 58° Northeast 446 513 37,000  Level Los Angeles Center
08:46PM 35.5903 -112.5336 58° Northeast 450 518 37,000  Level Los Angeles Center
08:47PM 35.6556 -112.4044 58° Northeast 448 516 37,000  Level Los Angeles Center
08:48PM 35.7214 -112.2772 57° Northeast 446 513 37,000  Level Los Angeles Center
08:49PM 35.7864 -112.1486 58° Northeast 445 512 37,000  Level Los Angeles Center
08:50PM 35.8622 -111.9947 59° Northeast 441 507 37,000  Level Los Angeles Center
08:51PM 35.9269 -111.8625 59° Northeast 440 506 37,000  Level Los Angeles Center
08:52PM 35.9772 -111.7622 58° Northeast 439 505 37,000  Level Denver Center
08:53PM 36.0400 -111.6342 59° Northeast 438 504 37,000  Level Denver Center
08:54PM 36.1039 -111.5072 58° Northeast 437 503 37,000  Level Denver Center
08:55PM 36.1672 -111.3781 59° Northeast 439 505 37,000  Level Denver Center
08:56PM 36.2436 -111.2211 59° Northeast 444 511 37,000  Level Denver Center
08:57PM 36.3078 -111.0897 59° Northeast 446 513 37,000  Level Denver Center
08:58PM 36.3725 -110.9564 59° Northeast 450 518 37,000  Level Denver Center
08:59PM 36.4358 -110.8247 59° Northeast 448 516 37,000  Level Denver Center
09:00PM 36.4997 -110.6936 59° Northeast 447 514 37,000  Level Denver Center
09:01PM 36.5622 -110.5639 59° Northeast 443 510 37,000  Level Denver Center
09:02PM 36.6242 -110.4331 59° Northeast 440 506 37,000  Level Denver Center
09:03PM 36.6986 -110.2767 59° Northeast 441 507 37,000  Level Denver Center
09:04PM 36.7628 -110.1425 59° Northeast 442 509 37,000  Level Denver Center
09:05PM 36.8222 -110.0156 60° Northeast 442 509 37,000  Level Denver Center
09:06PM 36.8836 -109.8864 59° Northeast 447 514 37,000  Level Denver Center
09:08PM 36.9539 -109.7375 59° Northeast 446 513 37,000  Level Denver Center
09:09PM 37.0131 -109.6092 60° Northeast 445 512 37,000  Level Denver Center
09:10PM 37.0839 -109.4572 60° Northeast 448 516 37,000  Level Denver Center
09:11PM 37.1450 -109.3244 60° Northeast 455 524 37,000  Level Denver Center
09:12PM 37.2061 -109.1933 60° Northeast 455 524 37,000 -300 Level Denver Center
09:13PM 37.2758 -109.0392 60° Northeast 454 522 36,400 -780 Descending Denver Center
09:14PM 37.3367 -108.9061 60° Northeast 456 525 35,500 -720 Descending Denver Center
09:15PM 37.4078 -108.7503 60° Northeast 458 527 35,000 -300 Descending Denver Center
09:16PM 37.4681 -108.6164 60° Northeast 458 527 35,000  Level Denver Center
09:17PM 37.5389 -108.4572 61° Northeast 463 533 35,000  Level Denver Center
09:18PM 37.5992 -108.3228 60° Northeast 461 531 35,000  Level Denver Center
09:19PM 37.6589 -108.1872 61° Northeast 462 532 35,000  Level Denver Center
09:20PM 37.7294 -108.0308 60° Northeast 459 528 35,000  Level Denver Center
09:21PM 37.7906 -107.8914 61° Northeast 468 539 35,000  Level Denver Center
09:22PM 37.8603 -107.7347 61° Northeast 462 532 35,000  Level Denver Center
09:23PM 37.9203 -107.5994 61° Northeast 460 529 35,000  Level Denver Center
09:24PM 37.9897 -107.4394 61° Northeast 463 533 35,000  Level Denver Center
09:25PM 38.0478 -107.3033 62° Northeast 460 529 35,000  Level Denver Center
09:26PM 38.1067 -107.1694 61° Northeast 462 532 35,000  Level Denver Center
09:27PM 38.1681 -107.0258 61° Northeast 465 535 35,000  Level Denver Center
09:28PM 38.2419 -106.8550 61° Northeast 459 528 35,000  Level Denver Center
09:29PM 38.2992 -106.7178 62° Northeast 461 531 35,000  Level Denver Center
09:30PM 38.3639 -106.5675 61° Northeast 465 535 35,000  Level Denver Center
09:31PM 38.4253 -106.4228 62° Northeast 466 536 35,000  Level Denver Center
09:32PM 38.4861 -106.2775 62° Northeast 466 536 35,000  Level Denver Center
09:33PM 38.5567 -106.1086 62° Northeast 468 539 35,000  Level Denver Center
09:34PM 38.6189 -105.9597 62° Northeast 472 543 35,000  Level Denver Center
09:35PM 38.6803 -105.8108 62° Northeast 470 541 35,000  Level Denver Center
09:36PM 38.7414 -105.6625 62° Northeast 469 540 35,000  Level Denver Center
09:37PM 38.8036 -105.5136 62° Northeast 469 540 35,000  Level Denver Center
09:38PM 38.8633 -105.3639 63° Northeast 470 541 35,000  Level Denver Center
09:39PM 38.9239 -105.2147 62° Northeast 468 539 35,000  Level Denver Center
09:40PM 38.9950 -105.0406 62° Northeast 469 540 35,000  Level Denver Center
09:41PM 39.0544 -104.8908 63° Northeast 468 539 35,000  Level Denver Center
09:43PM 39.1156 -104.7417 62° Northeast 468 539 35,000  Level Denver Center
09:44PM 39.1747 -104.5914 63° Northeast 469 540 35,000  Level Denver Center
09:45PM 39.2342 -104.4419 63° Northeast 468 539 35,000  Level Denver Center
09:46PM 39.2936 -104.2906 63° Northeast 472 543 35,000  Level Denver Center
09:47PM 39.3533 -104.1394 63° Northeast 470 541 35,000  Level Denver Center
09:48PM 39.4214 -103.9631 63° Northeast 470 541 35,000  Level Denver Center
09:49PM 39.4794 -103.8111 64° Northeast 470 541 35,000  Level Denver Center
09:50PM 39.5397 -103.6622 62° Northeast 462 532 35,000  Level Denver Center
09:51PM 39.5981 -103.5083 64° Northeast 471 542 35,000  Level Denver Center
09:52PM 39.6558 -103.3556 64° Northeast 470 541 35,000  Level Denver Center
09:53PM 39.7139 -103.2014 64° Northeast 471 542 35,000  Level Denver Center
09:54PM 39.7728 -103.0464 64° Northeast 474 545 35,000  Level Denver Center
09:55PM 39.8408 -102.8681 64° Northeast 469 540 35,000  Level Denver Center
09:56PM 39.8986 -102.7122 64° Northeast 472 543 35,000  Level Denver Center
09:57PM 39.9561 -102.5600 64° Northeast 471 542 35,000  Level Denver Center
09:58PM 40.0097 -102.4133 64° Northeast 468 539 35,000  Level Denver Center
09:59PM 40.0739 -102.2417 64° Northeast 472 543 35,000  Level Denver Center
10:00PM 40.1261 -102.0956 65° Northeast 468 539 35,000  Level Denver Center
10:01PM 40.1889 -101.9250 64° Northeast 467 537 35,000  Level Denver Center
10:02PM 40.2422 -101.7772 65° Northeast 469 540 35,000  Level Denver Center
10:03PM 40.3039 -101.6031 65° Northeast 471 542 35,000  Level Denver Center
10:04PM 40.3581 -101.4553 64° Northeast 471 542 35,000  Level Denver Center
10:05PM 40.4114 -101.3058 65° Northeast 474 545 35,000  Level Denver Center
10:06PM 40.4739 -101.1278 65° Northeast 480 552 35,000  Level Denver Center
10:07PM 40.5269 -100.9769 65° Northeast 479 551 35,000  Level Denver Center
10:08PM 40.5881 -100.8017 65° Northeast 477 549 35,000  Level Denver Center
10:09PM 40.6403 -100.6525 65° Northeast 476 548 35,000  Level Denver Center
10:10PM 40.7008 -100.4797 65° Northeast 473 544 35,000  Level Denver Center
10:11PM 40.7611 -100.3353 61° Northeast 476 548 35,000  Level Denver Center
10:12PM 40.8497 -100.1842 52° Northeast 471 542 35,000  Level Denver Center
10:13PM 40.9264 -100.0533 52° Northeast 472 543 35,000  Level Denver Center
10:14PM 41.0164 -99.8992 52° Northeast 475 547 35,000  Level Denver Center
10:15PM 41.0933 -99.7667 52° Northeast 474 545 35,000  Level Denver Center
10:17PM 41.1847 -99.6111 52° Northeast 478 550 35,000  Level Denver Center
10:18PM 41.2636 -99.4775 52° Northeast 479 551 35,000  Level Denver Center
10:19PM 41.3478 -99.3331 52° Northeast 482 555 35,000  Level Denver Center
10:20PM 41.4236 -99.1850 56° Northeast 483 556 35,000  Level Denver Center
10:21PM 41.4739 -99.0139 69° East 491 565 35,000  Level Denver Center
10:22PM 41.5236 -98.8289 70° East 490 564 35,000  Level Minneapolis Center
10:23PM 41.5742 -98.6344 71° East 489 563 35,000  Level Minneapolis Center
10:24PM 41.6197 -98.4611 71° East 491 565 35,000  Level Minneapolis Center
10:25PM 41.6633 -98.2903 71° East 486 559 35,000  Level Minneapolis Center
10:26PM 41.7192 -98.0758 71° East 487 560 35,000  Level Minneapolis Center
10:27PM 41.7633 -97.9033 71° East 488 562 35,000  Level Minneapolis Center
10:28PM 41.8072 -97.7319 71° East 488 562 35,000  Level Minneapolis Center
10:29PM 41.8497 -97.5581 72° East 490 564 35,000  Level Minneapolis Center
10:30PM 41.8792 -97.3803 77° East 487 560 35,000  Level Minneapolis Center
10:31PM 41.8986 -97.1969 82° East 493 567 35,000  Level Minneapolis Center
10:32PM 41.9183 -97.0147 82° East 493 567 35,000  Level Minneapolis Center
10:33PM 41.9367 -96.8333 82° East 492 566 35,000  Level Minneapolis Center
10:34PM 41.9556 -96.6519 82° East 490 564 35,000  Level Minneapolis Center
10:35PM 41.9739 -96.4708 82° East 489 563 35,000  Level Minneapolis Center
10:36PM 41.9925 -96.2886 82° East 489 563 35,000  Level Minneapolis Center
10:37PM 42.0103 -96.1056 82° East 491 565 35,000  Level Minneapolis Center
10:38PM 42.0272 -95.9219 83° East 492 566 35,000  Level Minneapolis Center
10:39PM 42.0472 -95.6978 83° East 500 575 35,000  Level Minneapolis Center
10:40PM 42.0647 -95.5125 83° East 499 574 35,000  Level Minneapolis Center
10:41PM 42.0817 -95.3275 83° East 498 573 35,000  Level Minneapolis Center
10:42PM 42.0981 -95.1419 83° East 497 572 35,000  Level Minneapolis Center
10:43PM 42.1139 -94.9569 83° East 496 571 35,000  Level Minneapolis Center
10:44PM 42.1289 -94.7731 84° East 494 568 35,000  Level Minneapolis Center
10:45PM 42.1439 -94.5894 84° East 494 568 35,000  Level Minneapolis Center
10:47PM 42.1597 -94.4069 83° East 492 566 35,000  Level Minneapolis Center
10:48PM 42.1742 -94.2233 84° East 492 566 35,000  Level Minneapolis Center
10:49PM 42.1914 -94.0044 84° East 490 564 35,000  Level Minneapolis Center
10:50PM 42.2064 -93.8139 84° East 489 563 35,000  Level Minneapolis Center
10:51PM 42.2211 -93.6339 84° East 489 563 35,000  Level Minneapolis Center
10:52PM 42.2353 -93.4539 84° East 488 562 35,000  Level Minneapolis Center
10:53PM 42.2467 -93.3100 84° East 488 562 35,000  Level Minneapolis Center
10:54PM 42.2592 -93.0922 85° East 489 563 35,000  Level Minneapolis Center
10:55PM 42.2747 -92.8756 84° East 489 563 35,000  Level Minneapolis Center
10:56PM 42.2869 -92.6964 85° East 486 559 35,000  Level Minneapolis Center
10:57PM 42.2983 -92.5164 85° East 485 558 35,000  Level Minneapolis Center
10:58PM 42.3106 -92.3381 85° East 485 558 35,000  Level Minneapolis Center
10:59PM 42.3206 -92.1594 86° East 484 557 35,000  Level Minneapolis Center
11:00PM 42.3339 -91.9444 85° East 483 556 35,000  Level Chicago Center
11:01PM 42.3444 -91.7678 85° East 481 554 35,000  Level Chicago Center
11:02PM 42.3544 -91.5925 86° East 478 550 35,000  Level Chicago Center
11:03PM 42.3653 -91.4150 85° East 481 554 35,000 -840 Level Chicago Center
11:05PM 42.3822 -91.0619 86° East 481 554 32,600 -1,560 Descending Minneapolis Center
11:06PM 42.3953 -90.8483 85° East 487 560 30,400 -1,980 Descending Chicago Center
11:07PM 42.4036 -90.6728 86° East 480 552 28,500 -1,920 Descending Chicago Center
11:08PM 42.4228 -90.4986 81° East 474 545 26,500 -1,860 Descending Chicago Center
11:09PM 42.4394 -90.3314 82° East 457 526 24,800 -1,380 Descending Chicago Center
11:10PM 42.4414 -90.1647 89° East 452 520 23,800 -1,020 Descending Chicago Center
11:11PM 42.4356 -89.9994 93° East 446 513 22,800 -1,080 Descending Chicago Center
11:12PM 42.4286 -89.8225 93° East 438 504 21,700 -1,020 Descending Chicago Center
11:13PM 42.4231 -89.6578 93° East 438 504 20,800 -1,020 Descending Chicago Center
11:14PM 42.4169 -89.4939 93° East 436 502 19,700 -1,620 Descending Chicago Center
11:15PM 42.4094 -89.3342 94° East 429 494 17,600 -2,100 Descending Chicago Center
11:16PM 42.4044 -89.1803 92° East 413 475 15,500 -2,460 Descending Chicago Center
11:17PM 42.3972 -89.0092 93° East 393 452 12,700 -2,220 Descending Chicago Center
11:18PM 42.3908 -88.8706 94° East 378 435 11,100 -1,260 Descending Chicago Center
11:19PM 42.3850 -88.7425 93° East 352 405 10,200 -780 Descending Chicago Center
11:20PM 42.3806 -88.6319 93° East 314 361 9,600 -600 Descending Chicago Center
11:21PM 42.3753 -88.5264 94° East 292 336 9,100 -840 Descending Chicago Center
11:22PM 42.3447 -88.4236 112° Southeast 304 350 8,000 -1,080 Descending Chicago Center
11:23PM 42.2997 -88.3247 122° Southeast 293 337 7,000 -540 Descending Chicago Center
11:24PM 42.2619 -88.2378 120° Southeast 279 321 7,000 -420 Level Chicago Center
11:25PM 42.2072 -88.1797 142° Southeast 253 291 6,200 -1,140 Descending Chicago Center
11:26PM 42.1539 -88.1186 140° Southeast 253 291 4,800 -1,260 Descending Chicago Center
11:27PM 42.1167 -88.0667 134° Southeast 207 238 3,800 -1,140 Descending Chicago TRACON